Main page
METAR-TAF:

METAR-TAF

Airports :

Caen – Carpiquet Airport

Caen, France

latitude: 49-11N, longitude: 000-27W, elevation: 78 m

Current weather observation

The report was made 37 minutes ago, at 09:30 UTC
Wind 5 kt from the North
Temperature 9°C
Humidity 87%
Pressure 1031 hPa
Visibility 10 km or more
Few clouds at a height of 3800 ft
Overcast at a height of 4400 ft

METAR: LFRK 240930Z AUTO 36005KT 9999 FEW038 OVC044 09/07 Q1031 TEMPO BKN008

Time: 11:07 (10:07 UTC)

Forecast

The report was made 2 hours and 7 minutes ago, at 08:00 UTC
Forecast valid from 24 at 09 UTC to 24 at 18 UTC
Wind 5 kt from the North
Visibility 10 km or more
Broken clouds at a height of 3000 ft
Temporary
from 24 at 09 UTC to 24 at 11 UTC
Broken clouds at a height of 800 ft
Becoming
from 24 at 10 UTC to 24 at 12 UTC
Wind 10 kt from the North

TAF: LFRK 240800Z 2409/2418 01005KT 9999 BKN030 TEMPO 2409/2411 BKN008 BECMG 2410/2412 01010KT

Weather observations and forecasts of more than 4000 airports (METAR and TAF reports).

The available stations are represented by yellow and red dots on the map.

Hover mouse over dot to see the name of the station.

Then click to see weather observations and forecasts.

To change the map : click on the green buttons with a black cross to zoom in, on the green button with a dash to zoom out, or on the green arrows for adjacent maps.


METAR-TAF: